createdAt,value
2022-11-22T17:56:11.521Z,991.95
2022-11-22T17:57:10.311Z,991.97
2022-11-22T17:58:10.255Z,992.00
2022-11-22T17:59:10.201Z,992.00
2022-11-22T18:00:10.151Z,992.06
2022-11-22T18:01:10.101Z,992.02
2022-11-22T18:02:10.047Z,992.04
2022-11-22T18:03:10.043Z,992.04
2022-11-22T18:04:09.949Z,992.12
2022-11-22T18:05:09.899Z,992.17
2022-11-22T18:06:09.856Z,992.16
2022-11-22T18:07:09.868Z,992.19
2022-11-22T18:08:09.757Z,992.22
2022-11-22T18:09:09.709Z,992.27
2022-11-22T18:10:09.659Z,992.24
2022-11-22T18:11:09.611Z,992.20
2022-11-22T18:12:09.583Z,992.20
2022-11-22T18:13:24.897Z,992.23
2022-11-22T18:14:09.468Z,992.23
2022-11-22T18:15:09.426Z,992.23
2022-11-22T18:16:09.372Z,992.18
2022-11-22T18:17:09.330Z,992.23
2022-11-22T18:18:11.324Z,992.16
2022-11-22T18:19:09.239Z,992.19
2022-11-22T18:20:09.187Z,992.17
2022-11-22T18:21:14.117Z,992.23
2022-11-22T18:22:09.093Z,992.23
2022-11-22T18:23:09.049Z,992.20
2022-11-22T18:24:09.000Z,992.24
2022-11-22T18:25:08.955Z,992.20
2022-11-22T18:26:38.903Z,992.24
2022-11-22T18:27:08.863Z,992.27
2022-11-22T18:28:08.938Z,992.22
2022-11-22T18:29:39.022Z,992.30
2022-11-22T18:30:08.720Z,992.22
2022-11-22T18:31:08.678Z,992.25
2022-11-22T18:32:08.633Z,992.25
2022-11-22T18:33:08.582Z,992.27
2022-11-22T18:34:08.535Z,992.25
2022-11-22T18:35:08.492Z,992.34
2022-11-22T18:36:49.422Z,992.28
2022-11-22T18:37:08.400Z,992.26
2022-11-22T18:38:08.351Z,992.26
2022-11-22T18:39:08.306Z,992.27
2022-11-22T18:40:08.259Z,992.30
2022-11-22T18:41:08.214Z,992.25
2022-11-22T18:42:08.167Z,992.28
2022-11-22T18:43:08.127Z,992.27
2022-11-22T18:44:09.993Z,992.22
2022-11-22T18:45:08.036Z,992.24
2022-11-22T18:46:07.993Z,992.23
2022-11-22T18:47:07.937Z,992.27
2022-11-22T18:48:07.897Z,992.20
2022-11-22T18:49:07.844Z,992.24
2022-11-22T18:50:12.356Z,992.21
2022-11-22T18:51:07.752Z,992.21
2022-11-22T18:52:09.700Z,992.25
2022-11-22T18:53:07.663Z,992.17
2022-11-22T18:54:07.611Z,992.26
2022-11-22T18:55:07.567Z,992.20
2022-11-22T18:56:07.523Z,992.27
2022-11-22T18:57:07.481Z,992.28
2022-11-22T18:58:07.431Z,992.32
2022-11-22T18:59:07.383Z,992.31
2022-11-22T19:00:07.459Z,992.32
2022-11-22T19:01:07.323Z,992.30
2022-11-22T19:02:07.251Z,992.29
2022-11-22T19:03:07.205Z,992.32
2022-11-22T19:04:07.155Z,992.31
2022-11-22T19:05:07.106Z,992.35
2022-11-22T19:06:07.059Z,992.36
2022-11-22T19:07:07.051Z,992.33
2022-11-22T19:08:06.968Z,992.38
2022-11-22T19:09:06.939Z,992.37
2022-11-22T19:10:06.880Z,992.42
2022-11-22T19:11:06.832Z,992.42
2022-11-22T19:12:06.785Z,992.42
2022-11-22T19:13:06.738Z,992.44
2022-11-22T19:14:06.691Z,992.47
2022-11-22T19:15:06.652Z,992.44
2022-11-22T19:16:06.731Z,992.48
2022-11-22T19:17:06.557Z,992.52
2022-11-22T19:18:06.509Z,992.48
2022-11-22T19:19:06.466Z,992.44
2022-11-22T19:20:06.731Z,992.42
2022-11-22T19:21:06.370Z,992.46
2022-11-22T19:22:06.324Z,992.49
2022-11-22T19:23:06.278Z,992.49
2022-11-22T19:24:06.231Z,992.51
2022-11-22T19:25:06.184Z,992.48
2022-11-22T19:26:06.139Z,992.44
2022-11-22T19:27:06.092Z,992.43
2022-11-22T19:28:06.047Z,992.42
2022-11-22T19:29:06.007Z,992.39
2022-11-22T19:30:06.029Z,992.39
2022-11-22T19:31:05.910Z,992.36
2022-11-22T19:32:05.980Z,992.39
2022-11-22T19:33:05.816Z,992.39
2022-11-22T19:34:05.770Z,992.44
2022-11-22T19:35:05.724Z,992.42
2022-11-22T19:36:05.679Z,992.39
2022-11-22T19:37:05.632Z,992.41
2022-11-22T19:38:05.588Z,992.37
2022-11-22T19:39:05.544Z,992.37
2022-11-22T19:40:05.491Z,992.39
2022-11-22T19:41:05.448Z,992.34
2022-11-22T19:42:05.400Z,992.40
2022-11-22T19:43:05.355Z,992.40
2022-11-22T19:44:05.308Z,992.36
2022-11-22T19:45:05.263Z,992.35
2022-11-22T19:46:05.215Z,992.36
2022-11-22T19:47:05.176Z,992.37
2022-11-22T19:48:05.239Z,992.35
2022-11-22T19:49:05.080Z,992.39
2022-11-22T19:50:05.037Z,992.36
2022-11-22T19:51:04.986Z,992.39
2022-11-22T19:52:04.938Z,992.32
2022-11-22T19:53:04.895Z,992.28
2022-11-22T19:54:04.845Z,992.33
2022-11-22T19:55:04.801Z,992.40
2022-11-22T19:56:04.754Z,992.39
2022-11-22T19:57:04.706Z,992.39
2022-11-22T19:58:04.660Z,992.42
2022-11-22T19:59:04.617Z,992.42
2022-11-22T20:00:04.575Z,992.37
2022-11-22T20:01:04.590Z,992.36
2022-11-22T20:02:04.482Z,992.36
2022-11-22T20:03:04.433Z,992.39
2022-11-22T20:04:04.542Z,992.36
2022-11-22T20:05:04.340Z,992.34
2022-11-22T20:06:04.291Z,992.35
2022-11-22T20:07:04.333Z,992.35
2022-11-22T20:08:04.213Z,992.37
2022-11-22T20:09:04.159Z,992.36
2022-11-22T20:10:04.113Z,992.40
2022-11-22T20:11:04.062Z,992.38
2022-11-22T20:12:04.015Z,992.42
2022-11-22T20:13:07.918Z,992.45
2022-11-22T20:14:03.924Z,992.41
2022-11-22T20:15:03.875Z,992.41
2022-11-22T20:16:03.838Z,992.44
2022-11-22T20:17:03.785Z,992.43
2022-11-22T20:18:03.737Z,992.41
2022-11-22T20:19:03.693Z,992.38
2022-11-22T20:20:03.666Z,992.39
2022-11-22T20:21:03.600Z,992.41
2022-11-22T20:22:03.556Z,992.42
2022-11-22T20:23:03.507Z,992.41
2022-11-22T20:24:03.461Z,992.46
2022-11-22T20:25:03.420Z,992.43
2022-11-22T20:26:03.367Z,992.46
2022-11-22T20:27:03.323Z,992.46
2022-11-22T20:28:03.275Z,992.43
2022-11-22T20:29:03.234Z,992.46
2022-11-22T20:30:03.186Z,992.44
2022-11-22T20:31:03.139Z,992.43
2022-11-22T20:32:03.094Z,992.41
2022-11-22T20:33:03.045Z,992.48
2022-11-22T20:34:03.013Z,992.51
2022-11-22T20:35:02.968Z,992.53
2022-11-22T20:36:03.076Z,992.56
2022-11-22T20:37:02.901Z,992.52
2022-11-22T20:38:02.825Z,992.54
2022-11-22T20:39:06.963Z,992.58
2022-11-22T20:40:02.722Z,992.59
2022-11-22T20:41:02.677Z,992.56
2022-11-22T20:42:32.596Z,992.58
2022-11-22T20:43:02.585Z,992.57
2022-11-22T20:44:02.538Z,992.57
2022-11-22T20:45:02.493Z,992.58
2022-11-22T20:46:02.444Z,992.52
2022-11-22T20:47:02.400Z,992.54
2022-11-22T20:48:02.354Z,992.53
2022-11-22T20:49:02.509Z,992.49
2022-11-22T20:50:02.260Z,992.51
2022-11-22T20:51:02.215Z,992.51
2022-11-22T20:52:02.293Z,992.50
2022-11-22T20:53:02.121Z,992.57
2022-11-22T20:54:02.086Z,992.54
2022-11-22T20:55:05.380Z,992.53
2022-11-22T20:56:02.014Z,992.53
2022-11-22T20:57:01.939Z,992.56
2022-11-22T20:58:01.891Z,992.53
2022-11-22T20:59:01.850Z,992.52
2022-11-22T21:00:01.801Z,992.51
2022-11-22T21:01:01.886Z,992.51
2022-11-22T21:02:04.007Z,992.55
2022-11-22T21:03:01.664Z,992.53
2022-11-22T21:04:01.617Z,992.55
2022-11-22T21:05:01.575Z,992.57
2022-11-22T21:06:01.530Z,992.56
2022-11-22T21:07:01.478Z,992.63
2022-11-22T21:08:05.061Z,992.59
2022-11-22T21:09:01.392Z,992.63
2022-11-22T21:10:01.340Z,992.65
2022-11-22T21:11:01.294Z,992.65
2022-11-22T21:12:01.245Z,992.67
2022-11-22T21:13:01.221Z,992.67
2022-11-22T21:14:01.157Z,992.68
2022-11-22T21:15:01.112Z,992.70
2022-11-22T21:16:01.067Z,992.69
2022-11-22T21:17:16.315Z,992.70
2022-11-22T21:18:24.300Z,992.73
2022-11-22T21:19:00.928Z,992.71
2022-11-22T21:20:00.879Z,992.70
2022-11-22T21:21:00.835Z,992.75
2022-11-22T21:22:00.785Z,992.80
2022-11-22T21:23:00.744Z,992.84
2022-11-22T21:24:00.844Z,992.80
2022-11-22T21:25:00.653Z,992.79
2022-11-22T21:26:00.600Z,992.79
2022-11-22T21:27:00.557Z,992.79
2022-11-22T21:28:00.517Z,992.77
2022-11-22T21:29:00.477Z,992.74
2022-11-22T21:30:00.443Z,992.77
2022-11-22T21:31:00.388Z,992.78
2022-11-22T21:32:00.334Z,992.78
2022-11-22T21:33:00.278Z,992.75
2022-11-22T21:34:00.232Z,992.77
2022-11-22T21:35:00.188Z,992.77
2022-11-22T21:36:00.142Z,992.80
2022-11-22T21:37:00.094Z,992.77
2022-11-22T21:38:00.052Z,992.82
2022-11-22T21:39:00.010Z,992.84
2022-11-22T21:40:00.086Z,992.81
2022-11-22T21:41:23.881Z,992.83
2022-11-22T21:41:59.865Z,992.81
2022-11-22T21:42:59.820Z,992.80
2022-11-22T21:43:59.770Z,992.82
2022-11-22T21:44:59.729Z,992.78
2022-11-22T21:45:59.679Z,992.84
2022-11-22T21:46:59.640Z,992.78
2022-11-22T21:47:59.588Z,992.77
2022-11-22T21:48:59.544Z,992.81
2022-11-22T21:49:59.493Z,992.87
2022-11-22T21:50:59.452Z,992.84
2022-11-22T21:51:59.402Z,992.86
2022-11-22T21:52:59.380Z,992.88
2022-11-22T21:53:59.313Z,992.83
2022-11-22T21:54:59.264Z,992.83
2022-11-22T21:55:59.334Z,992.86
2022-11-22T21:57:02.759Z,992.84
2022-11-22T21:57:59.131Z,992.83
2022-11-22T21:58:59.082Z,992.80
2022-11-22T21:59:59.033Z,992.85
2022-11-22T22:00:59.044Z,992.85
2022-11-22T22:01:59.006Z,992.85
2022-11-22T22:02:58.897Z,992.82
2022-11-22T22:03:58.851Z,992.85
2022-11-22T22:04:58.806Z,992.86
2022-11-22T22:05:58.758Z,992.87
2022-11-22T22:06:58.709Z,992.82
2022-11-22T22:07:58.721Z,992.82
2022-11-22T22:08:58.620Z,992.83
2022-11-22T22:09:58.574Z,992.79
2022-11-22T22:10:58.526Z,992.88
2022-11-22T22:11:58.506Z,992.84
2022-11-22T22:12:58.432Z,992.82
2022-11-22T22:13:58.392Z,992.85
2022-11-22T22:14:58.341Z,992.80
2022-11-22T22:15:58.311Z,992.87
2022-11-22T22:16:58.248Z,992.80
2022-11-22T22:17:58.204Z,992.82
